Terminal Aerodrome Forecast
Issued by NWS

Current Version | Previous Version | Text Only | Print | Product List | Glossary Off
Versions: 1 2 3 4 5 6 7 8 9 10 11 12 13 14 15 16 17 18 19 20 21 22

000
FTUS41 KILN 161000 AAB
TAFLUK
TAF AMD
KLUK 161009Z 1610/1706 20007KT P6SM -SHRA VCTS SCT009CB OVC017
      TEMPO 1610/1612 1SM SHRA BKN009
     FM161200 22007KT P6SM OVC017
     FM161300 22008KT P6SM VCSH OVC015
     FM161500 24012G20KT P6SM OVC020
     FM170000 24009G15KT P6SM OVC020=

USA.gov is the U.S. government's official web portal to all federal, state and local government web resources and services.